Time;durP1;ratioP1;P1;durP2;ratioP2;P2;SDS_P1;SDS_P2;PMS_P1;PMS_P2;Temp;Humidity;BMP_temperature;BMP_pressure;BME280_temperature;BME280_humidity;BME280_pressure;Samples;Min_cycle;Max_cycle;Signal;HPM_P1;HPM_P2
2023/11/27 00:00:48;;;;;;;3.00;1.90;;;;;;;-5.87;70.23;97037.85;105647;1254;61052;-28
2023/11/27 00:03:15;;;;;;;2.90;2.30;;;;;;;-5.84;70.50;97047.50;105824;1257;61113;-28
2023/11/27 00:05:42;;;;;;;2.90;2.00;;;;;;;-5.94;70.76;97066.05;105944;1256;73209;-27
2023/11/27 00:08:10;;;;;;;3.80;2.50;;;;;;;-5.96;71.29;97063.61;105909;1254;74818;-27
2023/11/27 00:10:42;;;;;;;2.80;2.20;;;;;;;-6.17;72.29;97061.20;105670;1254;72446;-29
2023/11/27 00:13:09;;;;;;;4.00;2.60;;;;;;;-6.07;72.96;97065.11;105475;1254;61161;-27
2023/11/27 00:15:36;;;;;;;2.20;1.90;;;;;;;-5.69;71.98;97064.89;105887;1252;61066;-28
2023/11/27 00:18:03;;;;;;;3.80;2.30;;;;;;;-5.48;71.31;97066.77;105922;1254;73695;-27
2023/11/27 00:20:30;;;;;;;2.20;2.00;;;;;;;-5.40;71.32;97062.65;105926;1254;74042;-28
2023/11/27 00:22:57;;;;;;;3.10;2.50;;;;;;;-5.63;71.44;97059.20;105854;1252;72421;-28
2023/11/27 00:27:03;;;;;;;2.60;2.10;;;;;;;-5.64;72.03;97064.48;102540;1293;600544;-27
2023/11/27 00:37:12;;;;;;;3.30;2.10;;;;;;;-5.63;72.71;97060.85;102636;1293;600084;-28
2023/11/27 00:46:40;;;;;;;3.60;3.10;;;;;;;-6.04;73.80;97038.83;102645;1293;600140;-31
2023/11/27 00:49:09;;;;;;;3.80;2.80;;;;;;;-6.09;73.90;97040.91;105063;1267;61147;-27
2023/11/27 00:51:36;;;;;;;3.00;2.70;;;;;;;-6.31;74.70;97045.30;105176;1264;61072;-27
2023/11/27 00:54:04;;;;;;;4.10;2.50;;;;;;;-6.23;75.14;97022.63;105221;1264;72191;-27
2023/11/27 00:56:32;;;;;;;4.10;2.30;;;;;;;-5.81;73.86;97026.24;105204;1262;74294;-27
2023/11/27 01:06:40;;;;;;;4.60;2.30;;;;;;;-6.10;74.55;97041.28;102613;1295;600103;-27
2023/11/27 01:09:09;;;;;;;4.70;2.40;;;;;;;-6.18;74.52;97048.07;104868;1267;61152;-27
2023/11/27 01:19:22;;;;;;;2.60;2.20;;;;;;;-5.85;73.94;97040.80;102622;1295;599458;-27
2023/11/27 01:21:52;;;;;;;4.20;3.10;;;;;;;-6.03;74.44;97036.41;105045;1267;61126;-28
2023/11/27 01:35:39;;;;;;;2.90;2.50;;;;;;;-5.98;75.05;97007.59;102604;1294;599936;-28
2023/11/27 01:38:07;;;;;;;4.30;3.20;;;;;;;-5.98;75.04;97010.11;104963;1269;61184;-27
2023/11/27 01:40:35;;;;;;;3.30;2.50;;;;;;;-6.18;75.88;97009.91;104906;1266;61065;-27
2023/11/27 01:43:11;;;;;;;4.90;2.90;;;;;;;-6.31;75.87;97002.02;104849;1270;72210;-28
2023/11/27 01:45:39;;;;;;;5.70;3.50;;;;;;;-6.44;76.19;96991.84;104707;1267;74282;-28
2023/11/27 01:48:07;;;;;;;4.40;2.70;;;;;;;-6.53;76.61;96984.45;102196;1269;3488801;-28
2023/11/27 01:50:36;;;;;;;5.20;3.40;;;;;;;-6.15;75.59;96986.08;104756;1269;61270;-27
2023/11/27 01:53:05;;;;;;;3.50;2.50;;;;;;;-6.05;74.78;97000.64;104987;1263;61040;-28
2023/11/27 01:55:33;;;;;;;3.10;2.20;;;;;;;-6.13;75.25;96996.33;105087;1264;70827;-28
2023/11/27 01:58:01;;;;;;;4.50;2.90;;;;;;;-6.15;75.66;97002.33;105038;1263;73071;-27
2023/11/27 02:00:29;;;;;;;5.20;3.20;;;;;;;-6.22;75.74;97006.02;104909;1266;72652;-28
2023/11/27 02:10:40;;;;;;;3.30;2.50;;;;;;;-5.96;74.48;96997.18;102986;1291;600197;-28
2023/11/27 02:19:24;;;;;;;4.50;2.50;;;;;;;-6.33;76.56;96974.59;102723;1290;600172;-27
2023/11/27 02:29:50;;;;;;;3.40;2.40;;;;;;;-6.03;74.32;96991.44;102445;1292;616468;-28
2023/11/27 02:32:17;;;;;;;2.60;2.20;;;;;;;-6.19;74.37;96996.73;104862;1266;61192;-28
2023/11/27 02:34:47;;;;;;;4.90;3.30;;;;;;;-6.28;75.65;97012.23;104826;1267;61212;-28
2023/11/27 02:37:15;;;;;;;4.10;2.70;;;;;;;-6.47;76.66;97008.15;104711;1266;72062;-28
2023/11/27 02:39:42;;;;;;;7.10;3.10;;;;;;;-6.60;76.77;97008.27;104831;1265;74777;-28
2023/11/27 02:42:09;;;;;;;4.10;2.90;;;;;;;-6.37;76.63;97010.05;102506;1266;3390712;-28
2023/11/27 02:44:36;;;;;;;4.40;2.80;;;;;;;-6.28;75.91;97013.23;104892;1270;61215;-28
2023/11/27 02:47:03;;;;;;;3.50;2.00;;;;;;;-6.33;76.38;97019.54;105142;1262;61177;-28
2023/11/27 02:49:31;;;;;;;4.80;3.30;;;;;;;-6.26;75.91;97010.09;105200;1268;61126;-28
2023/11/27 02:51:58;;;;;;;4.40;3.20;;;;;;;-6.43;76.95;97019.48;105113;1262;73262;-28
2023/11/27 02:54:26;;;;;;;3.70;2.80;;;;;;;-6.46;77.48;97013.52;104450;1263;1003124;-25
2023/11/27 02:56:53;;;;;;;3.80;2.80;;;;;;;-6.43;77.50;97011.19;105049;1264;61981;-27
2023/11/27 02:59:20;;;;;;;3.40;2.60;;;;;;;-6.16;76.35;96996.64;105190;1267;61196;-26
2023/11/27 03:02:39;;;;;;;2.80;2.10;;;;;;;-6.25;75.93;97003.61;105065;1263;72840;-27
2023/11/27 03:05:08;;;;;;;3.90;2.60;;;;;;;-6.18;75.97;97017.30;105215;1259;74338;-28
2023/11/27 03:07:35;;;;;;;4.00;2.90;;;;;;;-6.30;75.94;97010.63;105290;1259;72491;-28
2023/11/27 03:10:03;;;;;;;6.70;3.10;;;;;;;-6.43;76.46;97015.75;105511;1259;61170;-28
2023/11/27 03:12:31;;;;;;;6.90;3.30;;;;;;;-6.55;76.75;97019.81;105223;1260;61097;-29
2023/11/27 03:14:58;;;;;;;3.00;2.60;;;;;;;-6.41;76.84;97019.36;105586;1261;72976;-28
2023/11/27 03:17:25;;;;;;;3.80;2.60;;;;;;;-6.17;75.81;97026.89;105569;1261;74250;-28
2023/11/27 03:19:53;;;;;;;4.70;3.10;;;;;;;-6.05;75.58;97039.04;105473;1258;72485;-28
2023/11/27 03:22:20;;;;;;;2.80;2.20;;;;;;;-6.27;76.22;97048.48;105531;1259;61150;-28
2023/11/27 03:24:47;;;;;;;4.30;2.80;;;;;;;-6.41;76.68;97037.79;105274;1261;61339;-28
2023/11/27 03:27:14;;;;;;;3.10;2.70;;;;;;;-6.55;77.22;97039.08;105583;1258;72890;-32
2023/11/27 03:29:41;;;;;;;2.90;2.20;;;;;;;-6.36;77.01;97032.48;105455;1264;74246;-28
2023/11/27 03:32:08;;;;;;;3.60;2.80;;;;;;;-6.10;75.41;97028.77;105590;1257;72914;-28
2023/11/27 03:34:35;;;;;;;3.10;2.10;;;;;;;-6.22;75.32;97033.23;105592;1257;61026;-28
2023/11/27 03:37:02;;;;;;;3.70;2.70;;;;;;;-6.26;75.38;97023.42;105555;1262;61064;-28
2023/11/27 03:39:30;;;;;;;3.70;2.70;;;;;;;-6.32;75.64;97039.74;105677;1257;72832;-28
2023/11/27 03:41:56;;;;;;;3.30;2.20;;;;;;;-6.42;76.70;97040.52;105490;1259;74941;-28
2023/11/27 03:44:23;;;;;;;3.30;2.80;;;;;;;-6.45;76.59;97040.81;105474;1257;73207;-28
2023/11/27 03:46:50;;;;;;;3.50;3.00;;;;;;;-6.33;76.18;97041.82;105423;1257;61750;-28
2023/11/27 03:49:18;;;;;;;3.00;2.50;;;;;;;-6.02;75.01;97053.23;105636;1259;62523;-27
2023/11/27 03:51:45;;;;;;;4.30;2.70;;;;;;;-6.00;74.47;97053.15;105338;1257;72851;-28
2023/11/27 03:54:12;;;;;;;3.20;2.40;;;;;;;-6.14;74.80;97041.98;105333;1257;74766;-27
2023/11/27 03:56:40;;;;;;;4.00;2.10;;;;;;;-6.12;74.80;97063.16;105428;1261;72621;-27
2023/11/27 03:59:08;;;;;;;2.50;1.80;;;;;;;-6.12;74.41;97063.15;105492;1255;61053;-28
2023/11/27 04:01:35;;;;;;;3.70;2.80;;;;;;;-6.33;75.20;97065.62;105595;1262;61177;-28
2023/11/27 04:04:02;;;;;;;2.80;1.70;;;;;;;-6.43;75.19;97061.33;105580;1260;73559;-26
2023/11/27 04:06:31;;;;;;;4.50;2.40;;;;;;;-5.94;73.70;97071.30;105585;1257;74117;-27
2023/11/27 04:08:59;;;;;;;2.50;1.90;;;;;;;-5.85;72.80;97075.25;105560;1256;72620;-26
2023/11/27 04:11:27;;;;;;;3.00;2.50;;;;;;;-5.93;72.38;97064.80;105634;1255;61561;-28
2023/11/27 04:13:54;;;;;;;3.30;2.60;;;;;;;-6.09;72.97;97065.55;105634;1262;61113;-28
2023/11/27 04:16:22;;;;;;;4.00;2.90;;;;;;;-6.11;73.26;97068.52;105564;1257;72852;-26
2023/11/27 04:18:50;;;;;;;3.90;2.50;;;;;;;-6.16;73.68;97074.67;105701;1257;74152;-26
2023/11/27 04:21:18;;;;;;;4.00;3.10;;;;;;;-6.36;73.94;97058.52;105616;1257;72394;-27
2023/11/27 04:23:46;;;;;;;3.50;2.20;;;;;;;-6.46;74.01;97066.54;105657;1254;61170;-26
2023/11/27 04:26:14;;;;;;;3.50;2.30;;;;;;;-6.09;72.86;97058.13;105618;1259;61172;-26
2023/11/27 04:28:42;;;;;;;4.30;2.80;;;;;;;-5.95;71.46;97054.78;105747;1259;72042;-26
2023/11/27 04:31:09;;;;;;;4.80;2.50;;;;;;;-5.80;71.25;97073.16;105738;1253;74334;-26
2023/11/27 04:33:36;;;;;;;3.80;2.20;;;;;;;-5.95;71.71;97067.27;105711;1250;72357;-26
2023/11/27 04:36:04;;;;;;;3.50;2.00;;;;;;;-6.01;72.30;97073.84;105878;1256;61032;-28
2023/11/27 04:38:31;;;;;;;3.20;2.40;;;;;;;-6.14;72.57;97062.93;105917;1250;61084;-26
2023/11/27 04:40:58;;;;;;;3.90;2.40;;;;;;;-6.29;73.18;97056.66;105982;1250;73047;-26
2023/11/27 04:43:25;;;;;;;3.90;3.00;;;;;;;-6.33;74.07;97072.70;105925;1251;74378;-27
2023/11/27 04:45:52;;;;;;;3.60;2.70;;;;;;;-6.12;73.18;97053.90;105932;1250;72715;-27
2023/11/27 04:48:21;;;;;;;2.30;1.80;;;;;;;-5.80;72.12;97064.23;105944;1251;60988;-26
2023/11/27 04:50:48;;;;;;;3.70;2.80;;;;;;;-5.86;71.93;97058.23;105796;1251;61210;-27
2023/11/27 04:53:16;;;;;;;3.90;2.60;;;;;;;-6.01;72.62;97066.71;105907;1251;72712;-26
2023/11/27 04:55:43;;;;;;;3.70;2.70;;;;;;;-6.15;73.45;97057.02;105681;1251;74490;-27
2023/11/27 04:58:10;;;;;;;3.90;2.60;;;;;;;-6.14;73.46;97066.15;105869;1254;72583;-29
2023/11/27 05:00:37;;;;;;;3.50;2.70;;;;;;;-6.35;73.93;97040.21;105934;1250;61120;-26
2023/11/27 05:03:04;;;;;;;4.70;3.30;;;;;;;-6.39;74.37;97047.65;105941;1251;61174;-27
2023/11/27 05:05:31;;;;;;;4.20;2.60;;;;;;;-6.08;72.84;97049.30;105927;1250;72895;-29
2023/11/27 05:07:58;;;;;;;3.70;2.70;;;;;;;-5.80;71.81;97061.15;105999;1250;74313;-29
2023/11/27 05:10:28;;;;;;;2.70;2.30;;;;;;;-5.87;71.55;97057.25;105900;1250;72589;-28
2023/11/27 05:12:55;;;;;;;4.90;3.10;;;;;;;-5.97;71.23;97054.86;105991;1251;61043;-28
2023/11/27 05:15:22;;;;;;;2.80;2.20;;;;;;;-6.04;71.83;97074.80;105893;1257;61192;-29
2023/11/27 05:17:51;;;;;;;4.00;2.60;;;;;;;-6.10;71.48;97074.40;105561;1250;73604;-29
2023/11/27 05:20:18;;;;;;;3.10;2.40;;;;;;;-6.23;71.76;97088.00;105925;1254;74197;-28
2023/11/27 05:22:45;;;;;;;5.10;3.00;;;;;;;-6.25;71.61;97093.48;105953;1256;73150;-28
2023/11/27 05:25:12;;;;;;;3.80;2.80;;;;;;;-6.37;71.53;97077.81;105900;1250;61141;-28
2023/11/27 05:27:40;;;;;;;4.20;2.40;;;;;;;-6.13;71.08;97092.61;105864;1256;61092;-28
2023/11/27 05:30:07;;;;;;;2.60;2.10;;;;;;;-5.71;69.52;97089.33;105830;1250;72804;-28
2023/11/27 05:32:35;;;;;;;6.80;2.50;;;;;;;-5.50;68.35;97100.19;105943;1251;74185;-27
2023/11/27 05:35:02;;;;;;;2.70;2.20;;;;;;;-5.53;67.90;97104.86;105981;1251;72664;-27
2023/11/27 05:37:30;;;;;;;3.70;2.70;;;;;;;-5.72;68.00;97095.96;105903;1250;61039;-27
2023/11/27 05:39:57;;;;;;;2.60;2.00;;;;;;;-5.87;68.14;97098.15;105952;1251;61093;-27
2023/11/27 05:42:26;;;;;;;2.40;2.10;;;;;;;-5.96;67.98;97091.33;105982;1250;73037;-27
2023/11/27 05:44:59;;;;;;;4.10;2.50;;;;;;;-5.93;68.10;97098.11;105769;1253;74396;-27
2023/11/27 05:47:26;;;;;;;2.60;2.00;;;;;;;-6.00;68.10;97103.48;105807;1254;72770;-28
2023/11/27 05:49:53;;;;;;;4.00;2.90;;;;;;;-6.01;68.31;97094.25;105874;1251;61060;-28
2023/11/27 05:52:20;;;;;;;3.50;3.00;;;;;;;-6.12;68.40;97102.51;105833;1251;61150;-28
2023/11/27 05:54:47;;;;;;;4.50;2.70;;;;;;;-6.15;68.62;97113.48;105890;1256;72969;-28
2023/11/27 05:57:14;;;;;;;2.30;2.00;;;;;;;-5.97;68.59;97107.27;105955;1251;73957;-26
2023/11/27 05:59:41;;;;;;;2.90;2.40;;;;;;;-5.38;67.05;97110.92;105757;1250;72449;-28
2023/11/27 06:02:08;;;;;;;4.20;2.80;;;;;;;-5.29;66.05;97110.16;105901;1250;60984;-28
2023/11/27 06:04:35;;;;;;;3.20;2.20;;;;;;;-5.36;66.07;97109.02;105973;1250;61192;-30
2023/11/27 06:07:03;;;;;;;2.00;1.50;;;;;;;-5.47;66.41;97114.94;105939;1250;72813;-28
2023/11/27 06:09:30;;;;;;;3.60;2.70;;;;;;;-5.41;67.30;97117.84;105709;1250;74300;-26
2023/11/27 06:11:57;;;;;;;2.60;1.90;;;;;;;-5.61;68.64;97126.73;105946;1254;72650;-26
2023/11/27 06:14:24;;;;;;;3.90;2.30;;;;;;;-5.64;70.20;97119.76;105783;1250;61055;-26
2023/11/27 06:16:51;;;;;;;4.00;2.40;;;;;;;-5.84;71.70;97114.61;105921;1256;61781;-26
2023/11/27 06:19:19;;;;;;;5.30;2.90;;;;;;;-5.90;73.02;97133.63;105902;1251;73528;-28
2023/11/27 06:21:46;;;;;;;2.80;1.80;;;;;;;-5.55;71.11;97131.36;105995;1251;74222;-28
2023/11/27 06:24:13;;;;;;;4.00;2.10;;;;;;;-5.10;68.99;97144.46;105951;1250;72543;-29
2023/11/27 06:26:40;;;;;;;2.40;1.80;;;;;;;-5.27;68.73;97122.91;105947;1250;61069;-26
2023/11/27 06:29:07;;;;;;;5.10;2.60;;;;;;;-5.34;69.13;97149.13;105927;1256;61162;-26
2023/11/27 06:31:35;;;;;;;3.80;2.50;;;;;;;-5.51;69.07;97139.64;105916;1251;72904;-26
2023/11/27 06:34:02;;;;;;;2.40;2.10;;;;;;;-5.57;68.24;97127.02;105966;1251;73319;-26
2023/11/27 06:36:29;;;;;;;3.40;2.30;;;;;;;-5.57;68.56;97146.48;105966;1250;72594;-26
2023/11/27 06:38:56;;;;;;;3.20;2.40;;;;;;;-5.58;68.89;97147.39;105945;1253;62547;-26
2023/11/27 06:41:25;;;;;;;3.70;2.60;;;;;;;-5.69;68.63;97139.92;105897;1255;61081;-26
2023/11/27 06:43:52;;;;;;;3.30;2.20;;;;;;;-5.69;68.48;97143.14;105701;1250;73535;-26
2023/11/27 06:46:19;;;;;;;3.00;2.20;;;;;;;-5.74;68.73;97141.50;105946;1251;74939;-26
2023/11/27 06:48:47;;;;;;;3.60;2.50;;;;;;;-5.72;68.20;97127.07;105860;1254;73264;-26
2023/11/27 06:51:14;;;;;;;3.40;2.20;;;;;;;-5.70;68.81;97132.22;105683;1254;61029;-28
2023/11/27 06:53:41;;;;;;;3.10;2.40;;;;;;;-5.28;68.11;97134.64;105797;1252;61157;-27
2023/11/27 06:56:09;;;;;;;4.90;3.30;;;;;;;-5.07;66.87;97128.89;105875;1250;73502;-27
2023/11/27 06:58:36;;;;;;;3.80;2.20;;;;;;;-5.01;65.64;97128.11;105791;1250;74318;-27
2023/11/27 07:01:11;;;;;;;3.80;2.70;;;;;;;-5.08;66.01;97132.69;105951;1256;73083;-26
2023/11/27 07:03:37;;;;;;;4.30;2.30;;;;;;;-5.25;66.30;97135.85;105836;1256;61154;-27
2023/11/27 07:06:05;;;;;;;3.20;2.10;;;;;;;-5.31;66.97;97144.61;105850;1256;61140;-27
2023/11/27 07:08:34;;;;;;;3.70;2.60;;;;;;;-5.32;67.23;97144.50;105915;1250;73826;-27
2023/11/27 07:11:02;;;;;;;2.80;2.40;;;;;;;-5.40;67.21;97149.08;105948;1256;73430;-27
2023/11/27 07:13:29;;;;;;;4.50;2.50;;;;;;;-5.42;67.87;97144.10;105856;1251;71188;-26
2023/11/27 07:15:56;;;;;;;4.80;2.40;;;;;;;-5.51;67.65;97142.83;105664;1251;61059;-26
2023/11/27 07:18:24;;;;;;;4.10;2.10;;;;;;;-5.57;68.01;97145.29;105875;1257;61153;-26
2023/11/27 07:20:58;;;;;;;2.70;2.10;;;;;;;-5.64;68.49;97137.69;105945;1250;73712;-28
2023/11/27 07:23:26;;;;;;;3.70;2.50;;;;;;;-5.70;68.19;97131.52;105929;1255;74281;-28
2023/11/27 07:25:53;;;;;;;3.00;2.30;;;;;;;-5.71;68.69;97140.05;105888;1253;71415;-28
2023/11/27 07:28:21;;;;;;;4.30;2.00;;;;;;;-5.66;68.36;97133.21;105970;1256;62014;-28
2023/11/27 07:30:48;;;;;;;2.00;1.70;;;;;;;-5.22;67.27;97135.56;105930;1257;61176;-28
2023/11/27 07:33:16;;;;;;;3.40;2.10;;;;;;;-5.14;66.69;97135.01;105941;1254;73641;-28
2023/11/27 07:35:43;;;;;;;5.00;2.30;;;;;;;-5.13;66.44;97150.02;105948;1253;74177;-27
2023/11/27 07:38:10;;;;;;;2.20;1.80;;;;;;;-5.17;66.92;97156.78;105898;1250;74099;-28
2023/11/27 07:40:37;;;;;;;6.90;2.00;;;;;;;-5.28;66.85;97157.67;105981;1251;61218;-27
2023/11/27 07:43:10;;;;;;;4.70;2.30;;;;;;;-5.33;66.82;97157.39;105988;1256;61080;-28
2023/11/27 07:45:37;;;;;;;3.90;1.80;;;;;;;-5.41;67.28;97165.23;105866;1251;74278;-26
2023/11/27 07:48:04;;;;;;;2.40;1.80;;;;;;;-5.31;67.62;97171.01;105960;1251;74813;-28
2023/11/27 07:50:31;;;;;;;2.80;1.60;;;;;;;-5.37;67.26;97157.59;105923;1250;72593;-29
2023/11/27 07:52:58;;;;;;;2.80;2.30;;;;;;;-5.38;67.56;97163.39;105955;1250;61140;-28
2023/11/27 07:55:27;;;;;;;3.00;2.20;;;;;;;-5.48;66.90;97150.30;105905;1254;61518;-26
2023/11/27 07:57:55;;;;;;;3.50;2.10;;;;;;;-5.55;67.38;97147.23;105811;1250;73879;-29
2023/11/27 08:00:26;;;;;;;3.80;2.30;;;;;;;-5.58;66.80;97150.45;105752;1250;74308;-29
2023/11/27 08:02:53;;;;;;;4.80;2.30;;;;;;;-5.56;67.20;97171.30;105683;1253;72848;-28
2023/11/27 08:05:22;;;;;;;2.90;1.90;;;;;;;-5.52;67.00;97152.32;105921;1251;61151;-27
2023/11/27 08:07:49;;;;;;;3.00;2.30;;;;;;;-5.60;66.69;97155.25;105900;1256;61174;-29
2023/11/27 08:10:17;;;;;;;3.70;2.30;;;;;;;-5.59;66.71;97152.66;105889;1251;73803;-28
2023/11/27 08:12:44;;;;;;;5.60;2.70;;;;;;;-5.64;66.48;97156.63;105675;1251;73461;-28
2023/11/27 08:15:18;;;;;;;4.50;2.40;;;;;;;-5.66;65.90;97151.96;105879;1251;72648;-28
2023/11/27 08:17:46;;;;;;;3.00;1.90;;;;;;;-5.60;66.06;97148.66;105828;1250;61172;-26
2023/11/27 08:20:16;;;;;;;3.90;2.30;;;;;;;-5.49;65.93;97172.17;105729;1259;61161;-26
2023/11/27 08:22:43;;;;;;;2.60;1.70;;;;;;;-5.55;66.07;97152.17;105936;1251;73489;-26
2023/11/27 08:25:11;;;;;;;3.50;2.00;;;;;;;-5.43;66.13;97180.85;106012;1251;72982;-26
2023/11/27 08:27:42;;;;;;;3.10;2.00;;;;;;;-5.52;65.92;97163.14;105874;1250;72601;-26
2023/11/27 08:30:10;;;;;;;1.80;1.60;;;;;;;-5.45;65.49;97156.60;105893;1251;61032;-28
2023/11/27 08:32:37;;;;;;;5.30;2.30;;;;;;;-5.21;65.47;97158.20;105738;1259;61161;-27
2023/11/27 08:35:05;;;;;;;2.20;1.80;;;;;;;-5.34;65.62;97155.25;105938;1250;73869;-26
2023/11/27 08:37:35;;;;;;;4.40;2.20;;;;;;;-5.28;65.88;97168.50;106000;1255;73286;-27
2023/11/27 08:40:06;;;;;;;3.20;2.10;;;;;;;-5.11;65.46;97164.44;105743;1257;72647;-28
2023/11/27 08:42:35;;;;;;;3.90;2.00;;;;;;;-4.66;64.73;97182.95;105767;1251;61151;-28
2023/11/27 08:45:19;;;;;;;6.10;2.70;;;;;;;-4.40;62.67;97159.15;105649;1258;61224;-27
2023/11/27 08:47:50;;;;;;;2.80;2.00;;;;;;;-4.44;61.96;97175.94;105680;1256;73401;-27
2023/11/27 08:50:18;;;;;;;2.90;1.90;;;;;;;-4.27;61.95;97196.94;105941;1256;74468;-28
2023/11/27 08:52:45;;;;;;;2.70;2.00;;;;;;;-4.41;61.46;97182.89;105634;1256;72340;-27
2023/11/27 08:55:18;;;;;;;3.30;2.10;;;;;;;-4.51;61.55;97171.88;105765;1250;62167;-28
2023/11/27 08:57:46;;;;;;;4.90;2.20;;;;;;;-4.63;62.17;97179.94;105974;1252;61109;-28
2023/11/27 09:00:17;;;;;;;3.80;2.00;;;;;;;-4.27;62.12;97195.25;105941;1250;72850;-27
2023/11/27 09:02:45;;;;;;;3.20;2.40;;;;;;;-4.15;61.73;97185.51;105925;1256;73782;-28
2023/11/27 09:05:13;;;;;;;2.70;1.80;;;;;;;-4.20;61.56;97194.20;105870;1253;71679;-28
2023/11/27 09:07:40;;;;;;;4.60;2.40;;;;;;;-3.95;61.25;97189.70;105694;1253;61163;-27
2023/11/27 09:10:08;;;;;;;3.10;2.00;;;;;;;-3.95;60.85;97183.27;105589;1256;61141;-28
2023/11/27 09:12:35;;;;;;;3.90;2.00;;;;;;;-3.88;60.59;97180.02;105872;1251;74249;-27
2023/11/27 09:15:05;;;;;;;2.10;1.90;;;;;;;-3.64;60.04;97180.95;105730;1255;74294;-28
2023/11/27 09:17:32;;;;;;;5.60;2.30;;;;;;;-3.46;59.16;97175.92;105686;1259;71548;-28
2023/11/27 09:19:59;;;;;;;4.20;2.60;;;;;;;-3.60;58.95;97159.91;105528;1251;61109;-28
2023/11/27 09:22:26;;;;;;;3.00;2.20;;;;;;;-3.45;58.55;97171.98;105645;1254;61161;-27
2023/11/27 09:24:53;;;;;;;3.70;2.20;;;;;;;-3.53;58.48;97167.32;105720;1250;74036;-27
2023/11/27 09:27:22;;;;;;;2.90;1.90;;;;;;;-3.57;58.47;97168.20;105975;1256;74324;-28
2023/11/27 09:29:49;;;;;;;3.00;1.80;;;;;;;-3.46;58.33;97175.09;105674;1256;72923;-28
2023/11/27 09:32:16;;;;;;;3.20;2.20;;;;;;;-3.36;57.91;97172.54;105645;1252;61028;-26
2023/11/27 09:34:43;;;;;;;3.60;2.60;;;;;;;-3.23;57.57;97185.75;105674;1256;61184;-27
2023/11/27 09:37:11;;;;;;;2.60;2.00;;;;;;;-3.14;57.35;97167.55;105687;1260;73887;-27
2023/11/27 09:39:38;;;;;;;2.60;1.90;;;;;;;-3.34;56.73;97162.91;105716;1252;74327;-27
2023/11/27 09:42:05;;;;;;;2.90;2.20;;;;;;;-3.33;56.78;97167.26;105672;1256;71773;-27
2023/11/27 09:44:32;;;;;;;1.80;1.50;;;;;;;-3.51;57.23;97182.29;105651;1251;61009;-27
2023/11/27 09:47:02;;;;;;;4.10;1.80;;;;;;;-3.31;56.31;97148.82;105602;1257;61080;-27
2023/11/27 09:49:31;;;;;;;2.40;1.90;;;;;;;-3.23;56.16;97171.64;105450;1259;74440;-27
2023/11/27 09:52:02;;;;;;;3.40;2.20;;;;;;;-3.16;55.88;97165.47;105599;1259;74235;-27
2023/11/27 09:54:32;;;;;;;3.90;1.90;;;;;;;-2.85;55.25;97155.45;105676;1256;72559;-27
2023/11/27 09:56:59;;;;;;;2.00;1.60;;;;;;;-2.82;54.45;97160.35;105768;1253;61119;-27
2023/11/27 09:59:28;;;;;;;3.00;2.00;;;;;;;-2.79;54.92;97166.48;105909;1257;61080;-28
2023/11/27 10:01:57;;;;;;;2.30;1.70;;;;;;;-2.61;54.80;97173.44;105643;1258;71753;-27
2023/11/27 10:04:25;;;;;;;6.20;1.70;;;;;;;-2.67;54.52;97173.27;105700;1258;74414;-27
2023/11/27 10:06:52;;;;;;;2.40;1.90;;;;;;;-2.66;53.58;97153.19;105862;1256;74219;-27
2023/11/27 10:09:20;;;;;;;3.70;1.80;;;;;;;-2.51;53.54;97156.33;105825;1257;61080;-27
2023/11/27 10:11:50;;;;;;;3.70;2.30;;;;;;;-2.69;53.20;97142.80;105546;1257;61158;-27
2023/11/27 10:14:20;;;;;;;2.80;2.30;;;;;;;-2.52;53.62;97154.04;105538;1256;72884;-27
2023/11/27 10:17:05;;;;;;;2.70;2.30;;;;;;;-2.59;54.27;97169.72;105680;1251;74524;-27
2023/11/27 10:19:32;;;;;;;2.50;1.50;;;;;;;-2.32;54.08;97170.56;105403;1259;72336;-28
2023/11/27 10:22:00;;;;;;;2.10;1.50;;;;;;;-2.32;52.92;97162.55;105692;1259;61118;-28
2023/11/27 10:24:27;;;;;;;2.60;2.00;;;;;;;-2.46;52.74;97156.04;105877;1256;61097;-28
2023/11/27 10:26:56;;;;;;;2.20;1.60;;;;;;;-2.33;52.06;97163.80;105622;1257;73168;-28
2023/11/27 10:29:26;;;;;;;2.20;1.60;;;;;;;-2.20;52.11;97159.33;105851;1254;74772;-28
2023/11/27 10:31:55;;;;;;;2.50;1.80;;;;;;;-2.23;51.67;97172.73;105733;1251;72055;-28
2023/11/27 10:34:22;;;;;;;2.20;1.40;;;;;;;-2.15;52.43;97180.60;105797;1256;61073;-28
2023/11/27 10:36:57;;;;;;;2.40;1.50;;;;;;;-2.09;52.21;97169.73;105770;1263;61329;-28
2023/11/27 10:39:25;;;;;;;5.70;1.80;;;;;;;-2.17;51.70;97169.32;105606;1256;73551;-28
2023/11/27 10:41:55;;;;;;;2.70;1.60;;;;;;;-2.22;51.62;97183.60;105483;1259;73668;-28
2023/11/27 10:44:24;;;;;;;2.60;2.00;;;;;;;-2.03;51.40;97180.92;105772;1257;71647;-27
2023/11/27 10:46:53;;;;;;;2.20;1.60;;;;;;;-2.39;50.59;97162.43;105641;1253;61068;-28
2023/11/27 10:49:24;;;;;;;1.80;1.40;;;;;;;-2.33;51.37;97182.88;105570;1257;61120;-27
2023/11/27 10:51:51;;;;;;;2.20;1.70;;;;;;;-2.16;51.10;97180.83;105606;1257;72872;-27
2023/11/27 10:54:19;;;;;;;2.80;1.80;;;;;;;-2.63;51.26;97172.83;105717;1260;74542;-27
2023/11/27 10:56:47;;;;;;;5.20;1.90;;;;;;;-2.65;51.06;97169.73;105806;1254;72663;-27
2023/11/27 10:59:17;;;;;;;2.20;1.40;;;;;;;-2.71;51.22;97178.08;105526;1254;61069;-28
2023/11/27 11:01:45;;;;;;;2.60;1.70;;;;;;;-2.63;51.47;97192.05;105644;1255;61094;-27
2023/11/27 11:04:22;;;;;;;3.00;1.70;;;;;;;-2.52;51.89;97191.92;105462;1258;75210;-27
2023/11/27 11:06:52;;;;;;;3.00;1.60;;;;;;;-2.30;51.64;97187.26;105713;1256;74162;-27
2023/11/27 11:09:24;;;;;;;1.80;1.30;;;;;;;-2.34;51.91;97182.59;105663;1257;74019;-27
2023/11/27 11:11:55;;;;;;;1.80;1.30;;;;;;;-2.04;51.89;97196.14;105657;1259;61124;-27
2023/11/27 11:14:24;;;;;;;2.50;1.50;;;;;;;-2.10;51.29;97185.90;105837;1257;61106;-27
2023/11/27 11:17:01;;;;;;;2.10;1.70;;;;;;;-2.00;50.66;97171.73;105751;1251;73811;-27
2023/11/27 11:20:00;;;;;;;3.90;1.80;;;;;;;-2.14;50.25;97150.27;105924;1266;74363;-28
2023/11/27 11:23:16;;;;;;;2.20;1.40;;;;;;;-2.03;50.71;97182.65;105874;1257;72748;-27
2023/11/27 11:26:23;;;;;;;2.70;1.20;;;;;;;-2.08;49.55;97167.26;105708;1256;61054;-27
2023/11/27 11:29:14;;;;;;;2.30;1.20;;;;;;;-2.10;50.57;97174.36;105811;1259;61167;-27
2023/11/27 11:31:43;;;;;;;1.80;1.30;;;;;;;-1.93;50.39;97179.15;105884;1257;73100;-27
2023/11/27 11:34:22;;;;;;;2.70;1.50;;;;;;;-1.88;50.35;97176.28;105700;1257;72443;-27
2023/11/27 11:36:58;;;;;;;4.40;1.70;;;;;;;-1.97;50.46;97169.34;105566;1257;73109;-27
2023/11/27 11:39:26;;;;;;;2.90;1.90;;;;;;;-2.20;51.14;97174.23;105455;1253;61272;-27
2023/11/27 11:42:04;;;;;;;1.70;1.20;;;;;;;-2.18;51.55;97184.22;105644;1259;61060;-27
2023/11/27 11:44:35;;;;;;;2.80;1.80;;;;;;;-2.02;51.43;97179.69;105631;1259;74976;-27
2023/11/27 11:47:23;;;;;;;2.20;1.60;;;;;;;-2.05;50.94;97174.09;105500;1258;75360;-27
2023/11/27 11:49:51;;;;;;;2.20;1.60;;;;;;;-2.25;51.18;97172.54;105550;1257;72631;-27
2023/11/27 11:52:18;;;;;;;1.90;1.60;;;;;;;-2.29;51.15;97176.02;105688;1256;61065;-27
2023/11/27 11:54:47;;;;;;;2.20;1.50;;;;;;;-2.57;51.94;97174.36;105705;1264;61897;-27
2023/11/27 11:57:24;;;;;;;2.70;1.60;;;;;;;-2.54;52.53;97185.94;105736;1256;74159;-28
2023/11/27 11:59:51;;;;;;;3.70;1.90;;;;;;;-2.35;52.65;97193.84;105492;1259;75783;-28
2023/11/27 12:02:20;;;;;;;2.50;1.50;;;;;;;-2.39;52.24;97174.69;105795;1251;71600;-28
2023/11/27 12:04:51;;;;;;;3.60;1.80;;;;;;;-2.49;52.58;97181.25;105564;1257;61099;-28
2023/11/27 12:07:19;;;;;;;2.80;1.90;;;;;;;-2.54;52.94;97182.35;105514;1259;61125;-28
2023/11/27 12:09:49;;;;;;;2.30;2.00;;;;;;;-2.75;53.70;97179.33;105647;1257;73408;-28
2023/11/27 12:12:16;;;;;;;2.40;1.90;;;;;;;-2.60;53.87;97179.63;105827;1251;75582;-26
2023/11/27 12:14:43;;;;;;;4.20;2.00;;;;;;;-2.64;54.06;97176.64;105882;1257;73783;-28
2023/11/27 12:17:15;;;;;;;3.30;1.90;;;;;;;-2.69;54.23;97189.86;105706;1257;61672;-28
2023/11/27 12:19:45;;;;;;;2.90;1.90;;;;;;;-2.70;54.64;97199.42;105701;1252;61168;-26
2023/11/27 12:22:13;;;;;;;2.70;1.90;;;;;;;-2.72;54.64;97189.86;105586;1256;73609;-28
2023/11/27 12:24:45;;;;;;;2.70;2.20;;;;;;;-2.86;54.81;97201.48;105810;1255;74147;-27
2023/11/27 12:27:13;;;;;;;4.10;1.60;;;;;;;-2.82;54.64;97204.86;105708;1254;73018;-27
2023/11/27 12:29:40;;;;;;;2.40;1.90;;;;;;;-2.93;54.69;97210.37;105688;1254;61101;-27
2023/11/27 12:32:07;;;;;;;2.70;1.90;;;;;;;-2.97;55.19;97206.51;105986;1256;61125;-27
2023/11/27 12:34:35;;;;;;;2.50;1.70;;;;;;;-3.04;55.02;97195.91;105964;1252;75284;-28
2023/11/27 12:37:06;;;;;;;4.80;2.20;;;;;;;-3.20;56.09;97219.02;105865;1257;75813;-28